createdAt,value
2024-01-10T00:00:27.249Z,2.60
2024-01-10T00:02:54.934Z,2.50
2024-01-10T00:05:22.741Z,2.33
2024-01-10T00:07:50.560Z,2.80
2024-01-10T00:10:19.660Z,2.30
2024-01-10T00:12:47.394Z,2.33
2024-01-10T00:15:15.383Z,3.00
2024-01-10T00:17:43.114Z,2.53
2024-01-10T00:20:11.136Z,2.13
2024-01-10T00:22:39.040Z,2.30
2024-01-10T00:25:06.812Z,2.70
2024-01-10T00:27:35.882Z,2.30
2024-01-10T00:30:03.678Z,2.33
2024-01-10T00:32:31.411Z,2.50
2024-01-10T00:34:59.181Z,2.13
2024-01-10T00:37:26.842Z,2.60
2024-01-10T00:39:54.541Z,2.67
2024-01-10T00:42:22.198Z,2.60
2024-01-10T00:44:51.264Z,2.53
2024-01-10T00:47:18.958Z,2.30
2024-01-10T00:49:46.751Z,2.70
2024-01-10T00:52:14.472Z,2.27
2024-01-10T00:54:42.144Z,2.40
2024-01-10T00:57:09.792Z,2.53
2024-01-10T00:59:37.551Z,2.17
2024-01-10T01:02:06.777Z,2.30
2024-01-10T01:04:34.647Z,2.70
2024-01-10T01:07:02.328Z,2.07
2024-01-10T01:09:30.037Z,2.33
2024-01-10T01:11:57.710Z,2.43
2024-01-10T01:14:25.446Z,2.23
2024-01-10T01:16:53.202Z,2.67
2024-01-10T01:19:22.297Z,2.70
2024-01-10T01:21:49.993Z,2.47
2024-01-10T01:24:17.690Z,2.20
2024-01-10T01:26:45.346Z,2.67
2024-01-10T01:29:13.189Z,2.60
2024-01-10T01:31:40.926Z,2.53
2024-01-10T01:34:08.707Z,2.17
2024-01-10T01:36:37.732Z,2.10
2024-01-10T01:39:05.677Z,2.03
2024-01-10T01:41:33.319Z,2.17
2024-01-10T01:44:01.004Z,2.60
2024-01-10T01:46:30.272Z,2.40
2024-01-10T01:48:58.411Z,2.23
2024-01-10T01:51:27.778Z,2.40
2024-01-10T01:53:57.859Z,2.33
2024-01-10T01:56:25.711Z,2.90
2024-01-10T01:58:54.040Z,2.10
2024-01-10T02:01:22.658Z,2.07
2024-01-10T02:03:50.542Z,2.10
2024-01-10T02:06:18.390Z,2.63
2024-01-10T02:08:46.349Z,2.40
2024-01-10T02:11:15.640Z,2.47
2024-01-10T02:13:43.523Z,2.00
2024-01-10T02:16:11.554Z,2.80
2024-01-10T02:18:40.214Z,2.57
2024-01-10T02:21:07.988Z,2.50
2024-01-10T02:23:35.660Z,2.30
2024-01-10T02:26:05.010Z,2.37
2024-01-10T02:28:32.731Z,2.40
2024-01-10T02:31:01.252Z,2.30
2024-01-10T02:33:29.431Z,2.27
2024-01-10T02:35:57.149Z,2.00
2024-01-10T02:38:25.154Z,2.20
2024-01-10T02:40:52.944Z,2.40
2024-01-10T02:43:21.963Z,2.20
2024-01-10T02:45:49.649Z,2.30
2024-01-10T02:48:17.473Z,2.30
2024-01-10T02:50:45.346Z,2.20
2024-01-10T02:53:13.111Z,2.17
2024-01-10T02:55:41.285Z,2.03
2024-01-10T02:58:08.946Z,2.00
2024-01-10T03:00:38.837Z,2.50
2024-01-10T03:03:07.057Z,1.97
2024-01-10T03:05:34.746Z,2.30
2024-01-10T03:08:03.548Z,2.37
2024-01-10T03:10:31.333Z,2.27
2024-01-10T03:12:59.033Z,2.30
2024-01-10T03:15:26.795Z,2.30
2024-01-10T03:17:55.855Z,2.13
2024-01-10T03:20:23.662Z,2.60
2024-01-10T03:22:51.394Z,2.30
2024-01-10T03:25:19.130Z,1.90
2024-01-10T03:27:46.758Z,2.63
2024-01-10T03:30:14.877Z,2.13
2024-01-10T03:32:43.181Z,2.33
2024-01-10T03:35:12.507Z,2.70
2024-01-10T03:37:40.264Z,2.30
2024-01-10T03:40:09.220Z,2.40
2024-01-10T03:42:36.925Z,2.27
2024-01-10T03:45:05.886Z,2.50
2024-01-10T03:47:33.666Z,2.40
2024-01-10T03:50:01.587Z,2.27
2024-01-10T03:52:30.660Z,1.97
2024-01-10T03:54:58.796Z,1.97
2024-01-10T03:57:26.500Z,2.40
2024-01-10T03:59:54.149Z,2.10
2024-01-10T04:02:21.902Z,2.10
2024-01-10T04:04:49.673Z,2.20
2024-01-10T04:07:17.357Z,2.40
2024-01-10T04:09:46.400Z,2.43
2024-01-10T04:12:14.106Z,2.30
2024-01-10T04:14:41.791Z,2.23
2024-01-10T04:17:10.327Z,2.00
2024-01-10T04:19:38.150Z,2.37
2024-01-10T04:22:06.072Z,2.37
2024-01-10T04:24:33.748Z,2.30
2024-01-10T04:27:02.729Z,2.10
2024-01-10T04:29:30.338Z,2.13
2024-01-10T04:31:58.069Z,2.33
2024-01-10T04:34:25.978Z,2.37
2024-01-10T04:36:53.659Z,2.27
2024-01-10T04:39:21.358Z,2.50
2024-01-10T04:41:49.055Z,2.20
2024-01-10T04:44:18.114Z,2.40
2024-01-10T04:46:45.853Z,2.20
2024-01-10T04:49:14.105Z,2.10
2024-01-10T04:51:41.828Z,2.37
2024-01-10T04:54:10.009Z,1.97
2024-01-10T04:56:37.898Z,2.17
2024-01-10T04:59:05.625Z,2.03
2024-01-10T05:01:35.041Z,2.17
2024-01-10T05:04:02.732Z,2.50
2024-01-10T05:06:30.456Z,2.17
2024-01-10T05:08:59.207Z,2.10
2024-01-10T05:11:27.794Z,2.50
2024-01-10T05:13:55.634Z,2.40
2024-01-10T05:16:23.374Z,2.40
2024-01-10T05:18:52.423Z,2.10
2024-01-10T05:21:20.368Z,2.00
2024-01-10T05:23:48.055Z,2.10
2024-01-10T05:26:15.736Z,2.03
2024-01-10T05:28:43.458Z,2.20
2024-01-10T05:31:11.277Z,2.50
2024-01-10T05:33:39.092Z,2.00
2024-01-10T05:36:09.059Z,2.20
2024-01-10T05:38:36.788Z,2.40
2024-01-10T05:41:04.499Z,2.20
2024-01-10T05:43:32.699Z,1.80
2024-01-10T05:46:01.475Z,2.47
2024-01-10T05:48:29.318Z,2.50
2024-01-10T05:50:57.141Z,2.33
2024-01-10T05:53:27.142Z,2.10
2024-01-10T05:55:55.103Z,2.20
2024-01-10T05:58:22.800Z,2.27
2024-01-10T06:00:50.545Z,2.30
2024-01-10T06:03:18.233Z,2.50
2024-01-10T06:05:46.066Z,2.00
2024-01-10T06:08:15.215Z,1.80
2024-01-10T06:10:44.278Z,2.17
2024-01-10T06:13:11.936Z,2.07
2024-01-10T06:15:41.422Z,2.20
2024-01-10T06:18:09.201Z,2.23
2024-01-10T06:20:39.139Z,2.10
2024-01-10T06:23:07.229Z,1.80
2024-01-10T06:25:34.923Z,2.23
2024-01-10T06:28:04.358Z,2.10
2024-01-10T06:30:32.412Z,2.10
2024-01-10T06:33:01.210Z,1.73
2024-01-10T06:35:28.982Z,1.90
2024-01-10T06:37:56.747Z,2.30
2024-01-10T06:40:24.427Z,2.30
2024-01-10T06:42:52.089Z,2.20
2024-01-10T06:45:21.267Z,2.27
2024-01-10T06:47:49.018Z,2.30
2024-01-10T06:50:17.007Z,2.27
2024-01-10T06:52:44.726Z,2.03
2024-01-10T06:55:12.556Z,2.07
2024-01-10T06:57:40.211Z,2.30
2024-01-10T07:00:12.372Z,2.10
2024-01-10T07:02:42.096Z,2.50
2024-01-10T07:05:10.504Z,2.00
2024-01-10T07:07:38.770Z,2.07
2024-01-10T07:10:07.235Z,2.10
2024-01-10T07:12:35.367Z,2.30
2024-01-10T07:15:04.194Z,2.00
2024-01-10T07:17:32.035Z,2.30
2024-01-10T07:20:01.262Z,2.00
2024-01-10T07:22:29.067Z,2.43
2024-01-10T07:24:58.119Z,2.00
2024-01-10T07:27:25.819Z,2.17
2024-01-10T07:29:53.758Z,2.37
2024-01-10T07:32:21.560Z,2.10
2024-01-10T07:34:49.482Z,2.27
2024-01-10T07:37:21.889Z,2.23
2024-01-10T07:39:51.584Z,2.40
2024-01-10T07:42:19.593Z,2.27
2024-01-10T07:44:49.065Z,2.57
2024-01-10T07:47:17.628Z,2.20
2024-01-10T07:49:45.551Z,2.00
2024-01-10T07:52:14.549Z,2.30
2024-01-10T07:54:43.698Z,2.50
2024-01-10T07:57:12.189Z,2.30
2024-01-10T07:59:39.947Z,2.70
2024-01-10T08:02:08.437Z,2.20
2024-01-10T08:04:36.425Z,2.30
2024-01-10T08:07:04.535Z,2.20
2024-01-10T08:09:32.317Z,2.33
2024-01-10T08:12:01.486Z,2.67
2024-01-10T08:14:29.255Z,2.70
2024-01-10T08:16:59.417Z,2.70
2024-01-10T08:19:27.354Z,2.50
2024-01-10T08:21:55.298Z,2.70
2024-01-10T08:24:23.071Z,2.50
2024-01-10T08:26:52.961Z,2.83
2024-01-10T08:29:22.265Z,2.70
2024-01-10T08:31:50.524Z,2.53
2024-01-10T08:34:19.408Z,2.43
2024-01-10T08:36:48.451Z,2.90
2024-01-10T08:39:16.194Z,2.80
2024-01-10T08:41:45.412Z,2.63
2024-01-10T08:44:13.298Z,2.80
2024-01-10T08:46:42.375Z,2.47
2024-01-10T08:49:10.994Z,2.57
2024-01-10T08:51:38.708Z,2.73
2024-01-10T08:54:06.687Z,2.97
2024-01-10T08:56:35.691Z,2.70
2024-01-10T08:59:05.357Z,2.70
2024-01-10T09:01:33.725Z,2.53
2024-01-10T09:04:02.752Z,2.47
2024-01-10T09:06:32.315Z,2.60
2024-01-10T09:08:59.977Z,2.57
2024-01-10T09:11:27.847Z,2.60
2024-01-10T09:13:55.541Z,3.03
2024-01-10T09:16:23.237Z,2.83
2024-01-10T09:18:51.823Z,2.70
2024-01-10T09:21:22.877Z,3.10
2024-01-10T09:23:52.194Z,2.73
2024-01-10T09:26:20.204Z,3.27
2024-01-10T09:28:48.027Z,2.63
2024-01-10T09:31:15.847Z,3.00
2024-01-10T09:33:44.468Z,2.90
2024-01-10T09:36:12.242Z,2.93
2024-01-10T09:38:41.304Z,3.40
2024-01-10T09:41:09.038Z,2.77
2024-01-10T09:43:36.788Z,3.00
2024-01-10T09:46:05.214Z,2.60
2024-01-10T09:48:33.864Z,2.50
2024-01-10T09:51:01.872Z,2.60
2024-01-10T09:53:31.313Z,2.20
2024-01-10T09:56:02.311Z,2.57
2024-01-10T09:58:30.073Z,2.30
2024-01-10T10:00:57.785Z,2.40
2024-01-10T10:03:25.752Z,2.40
2024-01-10T10:05:53.596Z,2.17
2024-01-10T10:08:23.704Z,2.63
2024-01-10T10:10:52.249Z,2.67
2024-01-10T10:13:31.390Z,2.50
2024-01-10T10:16:00.762Z,2.00
2024-01-10T10:18:28.925Z,2.77
2024-01-10T10:21:10.924Z,2.37
2024-01-10T10:23:39.242Z,2.50
2024-01-10T10:26:15.617Z,2.60
2024-01-10T10:28:44.793Z,2.10
2024-01-10T10:31:12.805Z,2.20
2024-01-10T10:33:41.429Z,2.30
2024-01-10T10:36:09.597Z,2.50
2024-01-10T10:38:38.634Z,2.70
2024-01-10T10:41:11.557Z,2.77
2024-01-10T10:43:40.797Z,2.30
2024-01-10T10:46:13.436Z,2.50
2024-01-10T10:48:42.101Z,2.20
2024-01-10T10:51:17.704Z,2.43
2024-01-10T10:53:47.615Z,2.30
2024-01-10T10:56:15.325Z,2.53
2024-01-10T10:58:45.098Z,2.10
2024-01-10T11:01:16.397Z,2.43
2024-01-10T11:03:45.954Z,2.40
2024-01-10T11:06:13.945Z,2.93
2024-01-10T11:08:47.812Z,2.50
2024-01-10T11:11:27.552Z,2.67
2024-01-10T11:14:12.010Z,2.30
2024-01-10T11:16:58.007Z,2.47
2024-01-10T11:19:56.650Z,2.30
2024-01-10T11:22:42.698Z,2.17
2024-01-10T11:25:10.965Z,2.30
2024-01-10T11:27:39.368Z,2.43
2024-01-10T11:30:08.488Z,2.37
2024-01-10T11:32:37.551Z,2.43
2024-01-10T11:35:08.866Z,2.07
2024-01-10T11:37:44.514Z,2.40
2024-01-10T11:40:13.722Z,1.93
2024-01-10T11:42:44.223Z,2.20
2024-01-10T11:45:11.978Z,2.10
2024-01-10T11:47:42.496Z,2.33
2024-01-10T11:50:10.877Z,2.43
2024-01-10T11:52:39.444Z,2.30
2024-01-10T11:55:09.523Z,2.37
2024-01-10T11:57:38.348Z,2.10
2024-01-10T12:00:09.067Z,2.53
2024-01-10T12:02:37.865Z,2.33
2024-01-10T12:05:10.015Z,2.00
2024-01-10T12:07:38.266Z,2.53
2024-01-10T12:10:07.073Z,2.33
2024-01-10T12:12:35.119Z,2.13
2024-01-10T12:15:02.852Z,2.53
2024-01-10T12:17:31.122Z,2.20
2024-01-10T12:19:58.941Z,2.43
2024-01-10T12:22:28.033Z,2.40
2024-01-10T12:24:55.685Z,2.27
2024-01-10T12:27:24.133Z,2.43
2024-01-10T12:29:53.452Z,2.13
2024-01-10T12:32:24.599Z,2.40
2024-01-10T12:34:57.263Z,2.20
2024-01-10T12:37:24.973Z,2.63
2024-01-10T12:39:54.050Z,2.13
2024-01-10T12:42:21.746Z,2.23
2024-01-10T12:44:49.936Z,2.43
2024-01-10T12:47:21.960Z,2.33
2024-01-10T12:49:49.890Z,2.57
2024-01-10T12:52:20.458Z,2.63
2024-01-10T12:54:50.089Z,2.40
2024-01-10T12:57:19.165Z,2.37
2024-01-10T12:59:46.920Z,2.57
2024-01-10T13:02:14.690Z,2.40
2024-01-10T13:04:42.557Z,2.40
2024-01-10T13:07:10.231Z,2.13
2024-01-10T13:09:38.642Z,2.30
2024-01-10T13:12:07.243Z,2.20
2024-01-10T13:14:36.551Z,2.17
2024-01-10T13:17:05.568Z,2.50
2024-01-10T13:19:33.680Z,2.20
2024-01-10T13:22:02.301Z,2.40
2024-01-10T13:24:31.390Z,2.20
2024-01-10T13:26:59.301Z,2.67
2024-01-10T13:29:27.210Z,1.90
2024-01-10T13:31:56.317Z,2.43
2024-01-10T13:34:24.075Z,2.40
2024-01-10T13:36:51.825Z,2.60
2024-01-10T13:39:20.407Z,2.30
2024-01-10T13:41:48.192Z,2.20
2024-01-10T13:44:15.860Z,2.20
2024-01-10T13:46:43.682Z,2.40
2024-01-10T13:49:12.874Z,2.53
2024-01-10T13:51:41.917Z,2.30
2024-01-10T13:54:09.952Z,1.83
2024-01-10T13:56:40.455Z,2.20
2024-01-10T13:59:08.222Z,2.63
2024-01-10T14:01:35.902Z,2.17
2024-01-10T14:04:03.573Z,2.30
2024-01-10T14:06:32.678Z,2.30
2024-01-10T14:09:00.391Z,2.13
2024-01-10T14:11:28.721Z,2.20
2024-01-10T14:13:56.516Z,2.40
2024-01-10T14:16:24.241Z,2.13
2024-01-10T14:18:52.196Z,2.10
2024-01-10T14:21:20.893Z,3.07
2024-01-10T14:23:50.331Z,6.33
2024-01-10T14:26:18.154Z,5.27
2024-01-10T14:28:46.024Z,5.33
2024-01-10T14:31:22.732Z,5.07
2024-01-10T14:33:58.000Z,3.83
2024-01-10T14:36:25.852Z,4.13
2024-01-10T14:38:56.403Z,3.30
2024-01-10T14:41:24.242Z,3.67
2024-01-10T14:43:52.019Z,3.70
2024-01-10T14:46:19.719Z,3.60
2024-01-10T14:48:48.272Z,3.73
2024-01-10T14:51:16.502Z,3.70
2024-01-10T14:53:44.272Z,3.83
2024-01-10T14:56:13.477Z,3.60
2024-01-10T14:58:41.288Z,3.20
2024-01-10T15:01:09.726Z,3.47
2024-01-10T15:03:37.581Z,2.90
2024-01-10T15:06:06.313Z,3.23
2024-01-10T15:08:35.034Z,3.30
2024-01-10T15:11:03.471Z,2.93
2024-01-10T15:13:33.797Z,2.87
2024-01-10T15:16:02.369Z,2.97
2024-01-10T15:18:30.103Z,2.30
2024-01-10T15:20:57.977Z,3.13
2024-01-10T15:23:25.721Z,2.93
2024-01-10T15:25:53.464Z,3.07
2024-01-10T15:28:21.193Z,2.47
2024-01-10T15:30:50.265Z,2.87
2024-01-10T15:33:19.024Z,2.90
2024-01-10T15:35:47.589Z,3.10
2024-01-10T15:38:15.324Z,2.70
2024-01-10T15:40:43.870Z,3.27
2024-01-10T15:43:11.635Z,2.70
2024-01-10T15:45:39.512Z,2.60
2024-01-10T15:48:08.688Z,3.07
2024-01-10T15:50:36.527Z,2.63
2024-01-10T15:53:04.599Z,2.90
2024-01-10T15:55:33.288Z,3.73
2024-01-10T15:58:01.039Z,3.30
2024-01-10T16:00:28.713Z,3.03
2024-01-10T16:02:57.049Z,3.13
2024-01-10T16:05:26.475Z,3.70
2024-01-10T16:07:54.220Z,3.63
2024-01-10T16:10:21.914Z,3.23
2024-01-10T16:12:49.617Z,3.23
2024-01-10T16:15:18.197Z,3.50
2024-01-10T16:17:46.243Z,3.63
2024-01-10T16:20:14.272Z,4.00
2024-01-10T16:22:43.323Z,3.90
2024-01-10T16:25:11.177Z,3.80
2024-01-10T16:27:38.869Z,3.50
2024-01-10T16:30:07.788Z,3.97
2024-01-10T16:32:35.597Z,4.30
2024-01-10T16:35:03.991Z,5.03
2024-01-10T16:37:32.015Z,4.50
2024-01-10T16:40:01.067Z,4.43
2024-01-10T16:42:30.637Z,3.63
2024-01-10T16:44:58.426Z,3.77
2024-01-10T16:47:26.126Z,4.07
2024-01-10T16:49:53.865Z,3.63
2024-01-10T16:52:22.099Z,3.37
2024-01-10T16:54:49.814Z,3.33
2024-01-10T16:57:19.044Z,3.37
2024-01-10T16:59:46.712Z,3.33
2024-01-10T17:02:14.578Z,3.60
2024-01-10T17:04:42.339Z,4.03
2024-01-10T17:07:09.938Z,3.60
2024-01-10T17:09:40.521Z,3.00
2024-01-10T17:12:09.083Z,3.37
2024-01-10T17:14:38.250Z,3.30
2024-01-10T17:17:08.980Z,3.00
2024-01-10T17:19:36.656Z,3.50
2024-01-10T17:22:04.467Z,3.50
2024-01-10T17:24:32.183Z,3.50
2024-01-10T17:26:59.837Z,3.30
2024-01-10T17:29:27.586Z,3.53
2024-01-10T17:31:56.684Z,3.60
2024-01-10T17:34:24.389Z,3.60
2024-01-10T17:36:52.198Z,3.23
2024-01-10T17:39:21.175Z,3.03
2024-01-10T17:41:48.940Z,3.40
2024-01-10T17:44:17.355Z,3.40
2024-01-10T17:46:45.684Z,3.67
2024-01-10T17:49:14.830Z,3.60
2024-01-10T17:51:42.521Z,3.13
2024-01-10T17:54:10.229Z,3.70
2024-01-10T17:56:39.318Z,4.43
2024-01-10T17:59:07.049Z,4.63
2024-01-10T18:01:35.003Z,3.90
2024-01-10T18:04:07.845Z,4.10
2024-01-10T18:06:43.148Z,4.20
2024-01-10T18:09:10.873Z,4.10
2024-01-10T18:11:38.530Z,4.17
2024-01-10T18:14:06.249Z,3.80
2024-01-10T18:16:33.916Z,3.77
2024-01-10T18:19:02.167Z,3.70
2024-01-10T18:21:30.022Z,3.53
2024-01-10T18:23:59.242Z,3.17
2024-01-10T18:26:28.028Z,3.30
2024-01-10T18:28:55.851Z,3.50
2024-01-10T18:31:23.607Z,3.70
2024-01-10T18:33:51.430Z,4.20
2024-01-10T18:36:19.176Z,3.30
2024-01-10T18:38:47.456Z,3.90
2024-01-10T18:41:16.621Z,3.90
2024-01-10T18:43:44.334Z,3.43
2024-01-10T18:46:12.428Z,3.20
2024-01-10T18:48:40.562Z,4.00
2024-01-10T18:51:08.308Z,4.30
2024-01-10T18:53:36.577Z,3.53
2024-01-10T18:56:05.416Z,3.60
2024-01-10T18:58:34.593Z,3.53
2024-01-10T19:01:02.342Z,3.17
2024-01-10T19:03:30.060Z,3.70
2024-01-10T19:05:58.013Z,3.20
2024-01-10T19:08:27.339Z,3.73
2024-01-10T19:10:55.433Z,3.93
2024-01-10T19:13:23.191Z,3.40
2024-01-10T19:15:52.422Z,3.50
2024-01-10T19:18:20.095Z,2.90
2024-01-10T19:20:48.210Z,3.40
2024-01-10T19:23:15.953Z,3.70
2024-01-10T19:25:43.743Z,3.27
2024-01-10T19:28:11.547Z,3.40
2024-01-10T19:30:39.215Z,3.77
2024-01-10T19:33:08.263Z,3.67
2024-01-10T19:35:36.041Z,3.33
2024-01-10T19:38:03.939Z,3.50
2024-01-10T19:40:31.754Z,3.50
2024-01-10T19:42:59.476Z,3.30
2024-01-10T19:45:28.821Z,3.83
2024-01-10T19:47:56.577Z,3.33
2024-01-10T19:50:26.034Z,3.13
2024-01-10T19:52:54.157Z,3.40
2024-01-10T19:55:21.823Z,3.10
2024-01-10T19:57:49.577Z,3.23
2024-01-10T20:00:17.916Z,3.50
2024-01-10T20:02:47.204Z,2.93
2024-01-10T20:05:15.053Z,3.20
2024-01-10T20:07:44.143Z,3.43
2024-01-10T20:10:12.962Z,3.47
2024-01-10T20:12:40.690Z,3.27
2024-01-10T20:15:09.294Z,3.43
2024-01-10T20:17:37.174Z,3.30
2024-01-10T20:20:06.361Z,3.53
2024-01-10T20:22:34.137Z,3.40
2024-01-10T20:25:03.140Z,3.23
2024-01-10T20:27:30.833Z,3.13
2024-01-10T20:29:58.514Z,3.10
2024-01-10T20:32:26.256Z,3.13
2024-01-10T20:34:55.967Z,3.20
2024-01-10T20:37:24.127Z,2.63
2024-01-10T20:39:51.792Z,3.10
2024-01-10T20:42:21.120Z,3.07
2024-01-10T20:44:49.982Z,2.83
2024-01-10T20:47:19.071Z,3.03
2024-01-10T20:49:46.981Z,2.97
2024-01-10T20:52:15.676Z,3.17
2024-01-10T20:54:43.472Z,2.90
2024-01-10T20:57:11.109Z,2.87
2024-01-10T20:59:40.141Z,2.87
2024-01-10T21:02:07.868Z,3.10
2024-01-10T21:04:35.629Z,3.10
2024-01-10T21:07:12.947Z,2.83
2024-01-10T21:09:43.463Z,2.80
2024-01-10T21:12:12.470Z,3.00
2024-01-10T21:14:43.371Z,3.00
2024-01-10T21:17:13.720Z,2.73
2024-01-10T21:19:43.445Z,3.07
2024-01-10T21:22:13.824Z,2.70
2024-01-10T21:24:41.698Z,2.50
2024-01-10T21:27:09.694Z,2.80
2024-01-10T21:29:38.108Z,2.90
2024-01-10T21:32:07.436Z,2.53
2024-01-10T21:34:36.760Z,3.17
2024-01-10T21:37:04.957Z,2.37
2024-01-10T21:39:32.643Z,3.00
2024-01-10T21:42:00.422Z,3.07
2024-01-10T21:44:28.782Z,2.57
2024-01-10T21:46:56.659Z,2.50
2024-01-10T21:49:25.716Z,2.80
2024-01-10T21:51:53.723Z,2.33
2024-01-10T21:54:21.415Z,2.80
2024-01-10T21:56:49.140Z,2.70
2024-01-10T21:59:17.321Z,2.90
2024-01-10T22:01:45.036Z,2.67
2024-01-10T22:04:12.779Z,2.60
2024-01-10T22:06:41.938Z,2.80
2024-01-10T22:09:17.587Z,2.27
2024-01-10T22:11:45.359Z,2.60
2024-01-10T22:14:13.463Z,2.50
2024-01-10T22:16:41.229Z,2.30
2024-01-10T22:19:08.971Z,2.90
2024-01-10T22:21:36.855Z,2.43
2024-01-10T22:24:04.649Z,3.10
2024-01-10T22:26:33.928Z,2.70
2024-01-10T22:29:01.722Z,2.50
2024-01-10T22:31:29.496Z,2.30
2024-01-10T22:33:57.425Z,2.27
2024-01-10T22:36:25.140Z,2.60
2024-01-10T22:38:52.896Z,2.70
2024-01-10T22:41:20.644Z,2.43
2024-01-10T22:43:49.638Z,2.83
2024-01-10T22:46:17.990Z,2.30
2024-01-10T22:48:45.863Z,2.30
2024-01-10T22:51:13.758Z,2.60
2024-01-10T22:53:41.500Z,2.50
2024-01-10T22:56:09.310Z,2.40
2024-01-10T22:58:36.971Z,2.07
2024-01-10T23:01:06.354Z,3.00
2024-01-10T23:03:39.349Z,2.50
2024-01-10T23:06:08.182Z,2.10
2024-01-10T23:08:37.224Z,2.60
2024-01-10T23:11:05.280Z,2.60
2024-01-10T23:13:32.954Z,2.70
2024-01-10T23:16:00.937Z,2.57
2024-01-10T23:18:30.104Z,2.20
2024-01-10T23:20:57.835Z,2.60
2024-01-10T23:23:25.554Z,2.53
2024-01-10T23:25:53.383Z,2.17
2024-01-10T23:28:21.053Z,2.63
2024-01-10T23:30:48.750Z,2.30
2024-01-10T23:33:16.561Z,2.47
2024-01-10T23:35:49.129Z,2.10
2024-01-10T23:38:17.790Z,2.40
2024-01-10T23:40:45.929Z,2.57
2024-01-10T23:43:23.796Z,2.40
2024-01-10T23:45:55.676Z,2.30
2024-01-10T23:48:24.191Z,2.43
2024-01-10T23:50:53.375Z,2.20
2024-01-10T23:53:21.497Z,2.20
2024-01-10T23:55:49.206Z,2.30
2024-01-10T23:58:16.885Z,2.57
